sensor_id;sensor_type;location;lat;lon;timestamp;pressure;altitude;pressure_sealevel;temperature;humidity
33454;BME280;39400;49.744;7.012;2022-10-16T00:01:32;95763.06;;;12.29;100.00
33454;BME280;39400;49.744;7.012;2022-10-16T00:04:00;95748.13;;;12.30;100.00
33454;BME280;39400;49.744;7.012;2022-10-16T00:06:28;95748.03;;;12.37;100.00
33454;BME280;39400;49.744;7.012;2022-10-16T00:08:56;95733.94;;;12.28;100.00
33454;BME280;39400;49.744;7.012;2022-10-16T00:11:25;95744.22;;;12.24;100.00
33454;BME280;39400;49.744;7.012;2022-10-16T00:13:59;95741.34;;;12.35;100.00
33454;BME280;39400;49.744;7.012;2022-10-16T00:16:27;95738.69;;;12.28;100.00
33454;BME280;39400;49.744;7.012;2022-10-16T00:18:55;95749.28;;;12.29;100.00
33454;BME280;39400;49.744;7.012;2022-10-16T00:21:25;95749.72;;;12.28;100.00
33454;BME280;39400;49.744;7.012;2022-10-16T00:23:57;95738.63;;;12.31;100.00
33454;BME280;39400;49.744;7.012;2022-10-16T00:26:27;95744.91;;;12.35;100.00
33454;BME280;39400;49.744;7.012;2022-10-16T00:28:54;95738.22;;;12.36;100.00
33454;BME280;39400;49.744;7.012;2022-10-16T00:31:22;95749.94;;;12.44;100.00
33454;BME280;39400;49.744;7.012;2022-10-16T00:33:50;95752.28;;;12.46;100.00
33454;BME280;39400;49.744;7.012;2022-10-16T00:36:20;95752.28;;;12.46;100.00
33454;BME280;39400;49.744;7.012;2022-10-16T00:38:53;95752.28;;;12.46;100.00
33454;BME280;39400;49.744;7.012;2022-10-16T00:41:22;95755.09;;;12.38;100.00
33454;BME280;39400;49.744;7.012;2022-10-16T00:43:58;95751.06;;;12.47;100.00
33454;BME280;39400;49.744;7.012;2022-10-16T00:46:29;95744.81;;;12.43;100.00
33454;BME280;39400;49.744;7.012;2022-10-16T00:49:09;95756.66;;;12.40;100.00
33454;BME280;39400;49.744;7.012;2022-10-16T00:51:48;95758.25;;;12.41;100.00
33454;BME280;39400;49.744;7.012;2022-10-16T00:54:28;95760.63;;;12.38;100.00
33454;BME280;39400;49.744;7.012;2022-10-16T00:57:00;95767.03;;;12.28;100.00
33454;BME280;39400;49.744;7.012;2022-10-16T00:59:38;95751.53;;;12.42;100.00
33454;BME280;39400;49.744;7.012;2022-10-16T01:02:08;95759.06;;;12.37;100.00
33454;BME280;39400;49.744;7.012;2022-10-16T01:04:39;95764.66;;;12.30;100.00
33454;BME280;39400;49.744;7.012;2022-10-16T01:12:54;95762.13;;;12.43;100.00
33454;BME280;39400;49.744;7.012;2022-10-16T01:18:39;95771.63;;;12.42;100.00
33454;BME280;39400;49.744;7.012;2022-10-16T01:21:15;95794.66;;;12.21;100.00
33454;BME280;39400;49.744;7.012;2022-10-16T01:34:49;95792.44;;;12.09;100.00
33454;BME280;39400;49.744;7.012;2022-10-16T01:37:33;95784.91;;;12.13;100.00
33454;BME280;39400;49.744;7.012;2022-10-16T01:40:06;95777.38;;;12.17;100.00
33454;BME280;39400;49.744;7.012;2022-10-16T01:42:37;95783.06;;;11.99;100.00
33454;BME280;39400;49.744;7.012;2022-10-16T01:45:06;95788.78;;;12.16;100.00
33454;BME280;39400;49.744;7.012;2022-10-16T01:47:35;95780.16;;;12.13;100.00
33454;BME280;39400;49.744;7.012;2022-10-16T01:50:04;95779.03;;;12.07;100.00
33454;BME280;39400;49.744;7.012;2022-10-16T01:52:34;95788.16;;;12.01;100.00
33454;BME280;39400;49.744;7.012;2022-10-16T01:55:05;95801.19;;;11.97;100.00
33454;BME280;39400;49.744;7.012;2022-10-16T01:57:36;95799.69;;;11.88;100.00
33454;BME280;39400;49.744;7.012;2022-10-16T02:00:09;95789.41;;;11.93;100.00
33454;BME280;39400;49.744;7.012;2022-10-16T02:02:42;95792.81;;;12.07;100.00
33454;BME280;39400;49.744;7.012;2022-10-16T02:07:59;95792.81;;;12.07;100.00
33454;BME280;39400;49.744;7.012;2022-10-16T02:10:32;95787.94;;;12.22;100.00
33454;BME280;39400;49.744;7.012;2022-10-16T02:13:17;95788.31;;;12.28;100.00
33454;BME280;39400;49.744;7.012;2022-10-16T02:15:46;95785.44;;;12.38;100.00
33454;BME280;39400;49.744;7.012;2022-10-16T02:18:13;95785.00;;;12.44;100.00
33454;BME280;39400;49.744;7.012;2022-10-16T02:21:02;95783.06;;;12.41;100.00
33454;BME280;39400;49.744;7.012;2022-10-16T02:23:50;95783.88;;;12.37;100.00
33454;BME280;39400;49.744;7.012;2022-10-16T02:26:51;95797.16;;;12.05;100.00
33454;BME280;39400;49.744;7.012;2022-10-16T02:29:23;95794.25;;;12.26;100.00
33454;BME280;39400;49.744;7.012;2022-10-16T02:32:03;95787.13;;;12.25;100.00
33454;BME280;39400;49.744;7.012;2022-10-16T02:34:32;95786.00;;;12.19;100.00
33454;BME280;39400;49.744;7.012;2022-10-16T02:37:01;95792.34;;;12.16;100.00
33454;BME280;39400;49.744;7.012;2022-10-16T02:39:29;95783.84;;;12.00;100.00
33454;BME280;39400;49.744;7.012;2022-10-16T02:41:56;95785.72;;;12.10;100.00
33454;BME280;39400;49.744;7.012;2022-10-16T02:44:23;95786.53;;;12.07;100.00
33454;BME280;39400;49.744;7.012;2022-10-16T02:46:50;95790.03;;;12.11;100.00
33454;BME280;39400;49.744;7.012;2022-10-16T02:49:17;95806.63;;;12.04;100.00
33454;BME280;39400;49.744;7.012;2022-10-16T02:51:45;95803.47;;;12.02;100.00
33454;BME280;39400;49.744;7.012;2022-10-16T02:54:12;95797.88;;;12.16;100.00
33454;BME280;39400;49.744;7.012;2022-10-16T02:56:39;95801.72;;;12.22;100.00
33454;BME280;39400;49.744;7.012;2022-10-16T02:59:06;95804.81;;;12.31;100.00
33454;BME280;39400;49.744;7.012;2022-10-16T03:01:34;95797.78;;;12.27;100.00
33454;BME280;39400;49.744;7.012;2022-10-16T03:04:03;95803.34;;;12.20;100.00
33454;BME280;39400;49.744;7.012;2022-10-16T03:06:30;95798.63;;;12.20;100.00
33454;BME280;39400;49.744;7.012;2022-10-16T03:08:57;95799.84;;;12.12;100.00
33454;BME280;39400;49.744;7.012;2022-10-16T03:11:24;95809.72;;;12.13;100.00
33454;BME280;39400;49.744;7.012;2022-10-16T03:13:51;95808.88;;;12.20;100.00
33454;BME280;39400;49.744;7.012;2022-10-16T03:16:18;95807.19;;;12.29;100.00
33454;BME280;39400;49.744;7.012;2022-10-16T03:18:49;95808.38;;;12.28;100.00
33454;BME280;39400;49.744;7.012;2022-10-16T03:21:16;95807.88;;;12.41;100.00
33454;BME280;39400;49.744;7.012;2022-10-16T03:23:43;95813.47;;;12.33;100.00
33454;BME280;39400;49.744;7.012;2022-10-16T03:26:10;95810.31;;;12.31;100.00
33454;BME280;39400;49.744;7.012;2022-10-16T03:28:38;95823.78;;;12.22;100.00
33454;BME280;39400;49.744;7.012;2022-10-16T03:31:05;95829.19;;;12.36;100.00
33454;BME280;39400;49.744;7.012;2022-10-16T03:33:32;95827.75;;;12.21;100.00
33454;BME280;39400;49.744;7.012;2022-10-16T03:35:59;95831.31;;;12.18;100.00
33454;BME280;39400;49.744;7.012;2022-10-16T03:38:27;95832.75;;;12.33;100.00
33454;BME280;39400;49.744;7.012;2022-10-16T03:40:54;95830.88;;;12.23;100.00
33454;BME280;39400;49.744;7.012;2022-10-16T03:43:21;95821.41;;;12.24;100.00
33454;BME280;39400;49.744;7.012;2022-10-16T03:45:50;95822.97;;;12.25;100.00
33454;BME280;39400;49.744;7.012;2022-10-16T03:48:18;95821.31;;;12.35;100.00
33454;BME280;39400;49.744;7.012;2022-10-16T03:50:46;95820.47;;;12.42;100.00
33454;BME280;39400;49.744;7.012;2022-10-16T03:53:15;95810.69;;;12.37;100.00
33454;BME280;39400;49.744;7.012;2022-10-16T03:55:43;95813.41;;;12.41;100.00
33454;BME280;39400;49.744;7.012;2022-10-16T03:58:10;95816.09;;;12.48;100.00
33454;BME280;39400;49.744;7.012;2022-10-16T04:00:44;95821.28;;;12.38;100.00
33454;BME280;39400;49.744;7.012;2022-10-16T04:03:12;95818.16;;;12.36;100.00
33454;BME280;39400;49.744;7.012;2022-10-16T04:05:39;95828.03;;;12.34;100.00
33454;BME280;39400;49.744;7.012;2022-10-16T04:08:06;95826.47;;;12.29;100.00
33454;BME280;39400;49.744;7.012;2022-10-16T04:10:33;95830.84;;;12.27;100.00
33454;BME280;39400;49.744;7.012;2022-10-16T04:13:01;95837.97;;;12.24;100.00
33454;BME280;39400;49.744;7.012;2022-10-16T04:15:28;95832.44;;;12.24;100.00
33454;BME280;39400;49.744;7.012;2022-10-16T04:17:55;95845.84;;;12.22;100.00
33454;BME280;39400;49.744;7.012;2022-10-16T04:20:22;95846.22;;;12.24;100.00
33454;BME280;39400;49.744;7.012;2022-10-16T04:22:49;95846.53;;;12.33;100.00
33454;BME280;39400;49.744;7.012;2022-10-16T04:25:16;95837.19;;;12.24;100.00
33454;BME280;39400;49.744;7.012;2022-10-16T04:27:43;95830.88;;;12.23;100.00
33454;BME280;39400;49.744;7.012;2022-10-16T04:30:12;95848.22;;;12.20;100.00
33454;BME280;39400;49.744;7.012;2022-10-16T04:32:40;95849.78;;;12.21;100.00
33454;BME280;39400;49.744;7.012;2022-10-16T04:35:07;95849.00;;;12.21;100.00
33454;BME280;39400;49.744;7.012;2022-10-16T04:37:34;95841.09;;;12.26;100.00
33454;BME280;39400;49.744;7.012;2022-10-16T04:40:02;95846.66;;;12.19;100.00
33454;BME280;39400;49.744;7.012;2022-10-16T04:42:29;95852.97;;;12.20;100.00
33454;BME280;39400;49.744;7.012;2022-10-16T04:44:56;95860.47;;;12.16;100.00
33454;BME280;39400;49.744;7.012;2022-10-16T04:47:23;95870.66;;;12.22;100.00
33454;BME280;39400;49.744;7.012;2022-10-16T04:49:51;95874.63;;;12.18;100.00
33454;BME280;39400;49.744;7.012;2022-10-16T04:52:18;95883.72;;;12.14;100.00
33454;BME280;39400;49.744;7.012;2022-10-16T04:54:45;95881.38;;;12.13;100.00
33454;BME280;39400;49.744;7.012;2022-10-16T04:57:13;95875.84;;;12.13;100.00
33454;BME280;39400;49.744;7.012;2022-10-16T04:59:40;95885.28;;;12.12;100.00
33454;BME280;39400;49.744;7.012;2022-10-16T05:02:07;95889.25;;;12.11;100.00
33454;BME280;39400;49.744;7.012;2022-10-16T05:04:34;95880.16;;;12.14;100.00
33454;BME280;39400;49.744;7.012;2022-10-16T05:07:01;95878.97;;;12.15;100.00
33454;BME280;39400;49.744;7.012;2022-10-16T05:09:28;95887.19;;;12.22;100.00
33454;BME280;39400;49.744;7.012;2022-10-16T05:11:55;95885.28;;;12.12;100.00
33454;BME280;39400;49.744;7.012;2022-10-16T05:14:22;95888.06;;;12.12;100.00
33454;BME280;39400;49.744;7.012;2022-10-16T05:16:50;95892.41;;;12.13;100.00
33454;BME280;39400;49.744;7.012;2022-10-16T05:19:17;95892.81;;;12.08;100.00
33454;BME280;39400;49.744;7.012;2022-10-16T05:22:00;95892.41;;;12.13;100.00
33454;BME280;39400;49.744;7.012;2022-10-16T05:24:27;95894.75;;;12.11;100.00
33454;BME280;39400;49.744;7.012;2022-10-16T05:26:54;95903.44;;;12.09;100.00
33454;BME280;39400;49.744;7.012;2022-10-16T05:29:21;95901.06;;;12.08;100.00
33454;BME280;39400;49.744;7.012;2022-10-16T05:31:53;95894.72;;;12.14;100.00
33454;BME280;39400;49.744;7.012;2022-10-16T05:34:20;95905.72;;;12.18;100.00
33454;BME280;39400;49.744;7.012;2022-10-16T05:36:47;95907.34;;;12.12;100.00
33454;BME280;39400;49.744;7.012;2022-10-16T05:39:15;95901.06;;;12.08;100.00
33454;BME280;39400;49.744;7.012;2022-10-16T05:41:43;95908.13;;;12.16;100.00
33454;BME280;39400;49.744;7.012;2022-10-16T05:44:10;95911.25;;;12.18;100.00
33454;BME280;39400;49.744;7.012;2022-10-16T05:46:37;95906.50;;;12.19;100.00
33454;BME280;39400;49.744;7.012;2022-10-16T05:49:04;95914.06;;;12.11;100.00
33454;BME280;39400;49.744;7.012;2022-10-16T05:51:32;95906.59;;;12.08;100.00
33454;BME280;39400;49.744;7.012;2022-10-16T05:53:59;95917.97;;;12.13;100.00
33454;BME280;39400;49.744;7.012;2022-10-16T05:56:26;95910.06;;;12.16;100.00
33454;BME280;39400;49.744;7.012;2022-10-16T05:58:53;95913.66;;;12.12;100.00
33454;BME280;39400;49.744;7.012;2022-10-16T06:01:20;95913.69;;;12.09;100.00
33454;BME280;39400;49.744;7.012;2022-10-16T06:03:51;95927.00;;;12.18;100.00
33454;BME280;39400;49.744;7.012;2022-10-16T06:06:21;95918.81;;;12.07;100.00
33454;BME280;39400;49.744;7.012;2022-10-16T06:08:49;95924.28;;;12.14;100.00
33454;BME280;39400;49.744;7.012;2022-10-16T06:11:28;95930.97;;;12.13;100.00
33454;BME280;39400;49.744;7.012;2022-10-16T06:13:58;95926.22;;;12.17;100.00
33454;BME280;39400;49.744;7.012;2022-10-16T06:16:25;95922.28;;;12.18;100.00
33454;BME280;39400;49.744;7.012;2022-10-16T06:18:54;95923.81;;;12.19;100.00
33454;BME280;39400;49.744;7.012;2022-10-16T06:21:24;95923.00;;;12.26;100.00
33454;BME280;39400;49.744;7.012;2022-10-16T06:23:53;95923.81;;;12.19;100.00
33454;BME280;39400;49.744;7.012;2022-10-16T06:26:22;95920.72;;;12.17;100.00
33454;BME280;39400;49.744;7.012;2022-10-16T06:28:50;95926.97;;;12.21;100.00
33454;BME280;39400;49.744;7.012;2022-10-16T06:31:17;95914.72;;;12.26;100.00
33454;BME280;39400;49.744;7.012;2022-10-16T06:33:45;95921.47;;;12.21;100.00
33454;BME280;39400;49.744;7.012;2022-10-16T06:36:16;95933.63;;;12.27;100.00
33454;BME280;39400;49.744;7.012;2022-10-16T06:38:46;95932.44;;;12.28;100.00
33454;BME280;39400;49.744;7.012;2022-10-16T06:41:18;95934.78;;;12.33;100.00
33454;BME280;39400;49.744;7.012;2022-10-16T06:43:46;95944.22;;;12.32;100.00
33454;BME280;39400;49.744;7.012;2022-10-16T06:46:16;95947.31;;;12.42;100.00
33454;BME280;39400;49.744;7.012;2022-10-16T06:48:44;95943.34;;;12.43;100.00
33454;BME280;39400;49.744;7.012;2022-10-16T06:53:46;95961.53;;;12.36;100.00
33454;BME280;39400;49.744;7.012;2022-10-16T06:56:29;95963.88;;;12.38;100.00
33454;BME280;39400;49.744;7.012;2022-10-16T06:58:58;95966.56;;;12.49;100.00
33454;BME280;39400;49.744;7.012;2022-10-16T07:01:26;95980.22;;;12.63;100.00
33454;BME280;39400;49.744;7.012;2022-10-16T07:03:53;95978.66;;;12.66;100.00
33454;BME280;39400;49.744;7.012;2022-10-16T07:06:23;95980.56;;;12.72;100.00
33454;BME280;39400;49.744;7.012;2022-10-16T07:08:51;95977.47;;;12.63;100.00
33454;BME280;39400;49.744;7.012;2022-10-16T07:11:20;95981.81;;;12.60;100.00
33454;BME280;39400;49.744;7.012;2022-10-16T07:13:48;95995.66;;;12.53;100.00
33454;BME280;39400;49.744;7.012;2022-10-16T07:16:24;96007.06;;;12.59;100.00
33454;BME280;39400;49.744;7.012;2022-10-16T07:18:57;96005.44;;;12.65;100.00
33454;BME280;39400;49.744;7.012;2022-10-16T07:21:29;96003.06;;;12.67;100.00
33454;BME280;39400;49.744;7.012;2022-10-16T07:23:58;96012.97;;;12.61;100.00
33454;BME280;39400;49.744;7.012;2022-10-16T07:26:27;96012.81;;;12.82;100.00
33454;BME280;39400;49.744;7.012;2022-10-16T07:28:54;96017.91;;;12.84;100.00
33454;BME280;39400;49.744;7.012;2022-10-16T07:31:22;96027.81;;;12.74;100.00
33454;BME280;39400;49.744;7.012;2022-10-16T07:33:50;96036.03;;;12.81;100.00
33454;BME280;39400;49.744;7.012;2022-10-16T07:36:19;96041.56;;;12.81;100.00
33454;BME280;39400;49.744;7.012;2022-10-16T07:38:47;96040.00;;;12.80;100.00
33454;BME280;39400;49.744;7.012;2022-10-16T07:41:16;96040.72;;;12.88;100.00
33454;BME280;39400;49.744;7.012;2022-10-16T07:43:48;96042.72;;;12.88;100.00
33454;BME280;39400;49.744;7.012;2022-10-16T07:46:17;96057.69;;;12.90;100.00
33454;BME280;39400;49.744;7.012;2022-10-16T07:48:45;96053.75;;;12.88;100.00
33454;BME280;39400;49.744;7.012;2022-10-16T07:51:19;96064.81;;;12.84;100.00
33454;BME280;39400;49.744;7.012;2022-10-16T07:53:46;96064.38;;;12.93;100.00
33454;BME280;39400;49.744;7.012;2022-10-16T07:56:15;96080.16;;;12.89;100.00
33454;BME280;39400;49.744;7.012;2022-10-16T07:58:42;96076.16;;;12.97;100.00
33454;BME280;39400;49.744;7.012;2022-10-16T08:01:12;96076.97;;;12.94;100.00
33454;BME280;39400;49.744;7.012;2022-10-16T08:03:47;96088.00;;;12.94;100.00
33454;BME280;39400;49.744;7.012;2022-10-16T08:06:16;96087.94;;;13.01;100.00
33454;BME280;39400;49.744;7.012;2022-10-16T08:08:48;96075.94;;;13.25;100.00
33454;BME280;39400;49.744;7.012;2022-10-16T08:11:15;96078.22;;;13.38;100.00
33454;BME280;39400;49.744;7.012;2022-10-16T08:13:42;96076.81;;;13.60;100.00
33454;BME280;39400;49.744;7.012;2022-10-16T08:16:09;96071.72;;;13.55;100.00
33454;BME280;39400;49.744;7.012;2022-10-16T08:18:38;96083.19;;;13.53;100.00
33454;BME280;39400;49.744;7.012;2022-10-16T08:21:06;96089.13;;;13.52;100.00
33454;BME280;39400;49.744;7.012;2022-10-16T08:23:33;96086.88;;;13.77;100.00
33454;BME280;39400;49.744;7.012;2022-10-16T08:26:06;96076.88;;;13.91;100.00
33454;BME280;39400;49.744;7.012;2022-10-16T08:28:35;96081.50;;;14.01;100.00
33454;BME280;39400;49.744;7.012;2022-10-16T08:31:12;96084.91;;;13.78;100.00
33454;BME280;39400;49.744;7.012;2022-10-16T08:33:41;96091.34;;;13.64;100.00
33454;BME280;39400;49.744;7.012;2022-10-16T08:36:09;96101.59;;;13.67;100.00
33454;BME280;39400;49.744;7.012;2022-10-16T08:38:37;96103.97;;;13.69;100.00
33454;BME280;39400;49.744;7.012;2022-10-16T08:49:35;96137.09;;;13.72;100.00
33454;BME280;39400;49.744;7.012;2022-10-16T08:52:03;96139.16;;;13.61;100.00
33454;BME280;39400;49.744;7.012;2022-10-16T08:54:41;96138.81;;;13.55;100.00
33454;BME280;39400;49.744;7.012;2022-10-16T08:57:16;96143.03;;;13.67;100.00
33454;BME280;39400;49.744;7.012;2022-10-16T08:59:50;96145.06;;;13.63;100.00
33454;BME280;39400;49.744;7.012;2022-10-16T09:02:31;96146.22;;;13.66;100.00
33454;BME280;39400;49.744;7.012;2022-10-16T09:05:22;96160.00;;;13.69;100.00
33454;BME280;39400;49.744;7.012;2022-10-16T09:08:04;96166.22;;;13.80;100.00
33454;BME280;39400;49.744;7.012;2022-10-16T09:13:29;96154.03;;;14.12;100.00
33454;BME280;39400;49.744;7.012;2022-10-16T09:21:24;96168.25;;;14.14;100.00
33454;BME280;39400;49.744;7.012;2022-10-16T09:23:54;96167.44;;;14.17;100.00
33454;BME280;39400;49.744;7.012;2022-10-16T09:26:24;96164.34;;;14.08;100.00
33454;BME280;39400;49.744;7.012;2022-10-16T09:28:52;96172.22;;;14.10;100.00
33454;BME280;39400;49.744;7.012;2022-10-16T09:31:22;96162.34;;;14.46;100.00
33454;BME280;39400;49.744;7.012;2022-10-16T09:33:51;96146.28;;;14.68;100.00
33454;BME280;39400;49.744;7.012;2022-10-16T09:36:19;96134.56;;;14.57;100.00
33454;BME280;39400;49.744;7.012;2022-10-16T09:38:47;96145.44;;;14.71;100.00
33454;BME280;39400;49.744;7.012;2022-10-16T09:41:21;96142.28;;;14.73;100.00
33454;BME280;39400;49.744;7.012;2022-10-16T09:43:57;96153.34;;;14.73;100.00
33454;BME280;39400;49.744;7.012;2022-10-16T09:46:25;96149.50;;;14.63;100.00
33454;BME280;39400;49.744;7.012;2022-10-16T09:49:24;96157.34;;;14.68;100.00
33454;BME280;39400;49.744;7.012;2022-10-16T09:52:03;96158.78;;;14.46;100.00
33454;BME280;39400;49.744;7.012;2022-10-16T09:54:31;96148.16;;;14.44;100.00
33454;BME280;39400;49.744;7.012;2022-10-16T09:57:10;96145.63;;;14.88;100.00
33454;BME280;39400;49.744;7.012;2022-10-16T09:59:51;96154.31;;;14.59;100.00
33454;BME280;39400;49.744;7.012;2022-10-16T10:02:20;96157.91;;;14.87;100.00
33454;BME280;39400;49.744;7.012;2022-10-16T10:04:51;96145.72;;;14.81;100.00
33454;BME280;39400;49.744;7.012;2022-10-16T10:07:31;96146.34;;;14.92;100.00
33454;BME280;39400;49.744;7.012;2022-10-16T10:10:04;96143.69;;;15.39;100.00
33454;BME280;39400;49.744;7.012;2022-10-16T10:12:32;96125.69;;;15.74;100.00
33454;BME280;39400;49.744;7.012;2022-10-16T10:15:09;96116.94;;;15.76;100.00
33454;BME280;39400;49.744;7.012;2022-10-16T10:17:52;96121.38;;;15.93;100.00
33454;BME280;39400;49.744;7.012;2022-10-16T10:20:33;96125.84;;;15.63;100.00
33454;BME280;39400;49.744;7.012;2022-10-16T10:23:20;96117.53;;;15.40;100.00
33454;BME280;39400;49.744;7.012;2022-10-16T10:28:47;96137.53;;;15.98;100.00
33454;BME280;39400;49.744;7.012;2022-10-16T10:34:17;96126.75;;;16.44;100.00
33454;BME280;39400;49.744;7.012;2022-10-16T10:36:54;96133.00;;;16.08;100.00
33454;BME280;39400;49.744;7.012;2022-10-16T10:39:40;96126.72;;;15.84;100.00
33454;BME280;39400;49.744;7.012;2022-10-16T10:44:57;96137.41;;;15.58;100.00
33454;BME280;39400;49.744;7.012;2022-10-16T11:04:50;96148.38;;;15.42;100.00
33454;BME280;39400;49.744;7.012;2022-10-16T11:07:31;96143.44;;;15.53;100.00
33454;BME280;39400;49.744;7.012;2022-10-16T11:10:13;96142.94;;;15.58;100.00
33454;BME280;39400;49.744;7.012;2022-10-16T11:12:44;96150.53;;;15.54;100.00
33454;BME280;39400;49.744;7.012;2022-10-16T11:15:21;96140.91;;;15.62;100.00
33454;BME280;39400;49.744;7.012;2022-10-16T11:17:56;96141.75;;;15.59;100.00
33454;BME280;39400;49.744;7.012;2022-10-16T11:20:28;96135.16;;;15.77;100.00
33454;BME280;39400;49.744;7.012;2022-10-16T11:25:28;96139.81;;;16.03;100.00
33454;BME280;39400;49.744;7.012;2022-10-16T11:30:30;96146.47;;;15.86;100.00
33454;BME280;39400;49.744;7.012;2022-10-16T11:33:10;96142.66;;;16.00;100.00
33454;BME280;39400;49.744;7.012;2022-10-16T11:41:34;96155.47;;;16.13;100.00
33454;BME280;39400;49.744;7.012;2022-10-16T11:50:34;96142.72;;;15.96;100.00
33454;BME280;39400;49.744;7.012;2022-10-16T11:55:58;96139.31;;;16.08;100.00
33454;BME280;39400;49.744;7.012;2022-10-16T12:06:55;96112.41;;;16.85;100.00
33454;BME280;39400;49.744;7.012;2022-10-16T12:09:29;96118.59;;;16.73;100.00
33454;BME280;39400;49.744;7.012;2022-10-16T12:11:58;96129.81;;;16.49;100.00
33454;BME280;39400;49.744;7.012;2022-10-16T12:16:59;96135.19;;;16.16;100.00
33454;BME280;39400;49.744;7.012;2022-10-16T12:19:28;96140.53;;;16.07;100.00
33454;BME280;39400;49.744;7.012;2022-10-16T12:21:59;96147.16;;;16.13;100.00
33454;BME280;39400;49.744;7.012;2022-10-16T12:24:39;96154.19;;;15.98;100.00
33454;BME280;39400;49.744;7.012;2022-10-16T12:27:28;96162.50;;;15.75;100.00
33454;BME280;39400;49.744;7.012;2022-10-16T12:30:00;96158.59;;;15.72;100.00
33454;BME280;39400;49.744;7.012;2022-10-16T12:32:31;96158.75;;;15.61;100.00
33454;BME280;39400;49.744;7.012;2022-10-16T12:35:20;96168.75;;;15.55;100.00
33454;BME280;39400;49.744;7.012;2022-10-16T12:37:49;96158.25;;;15.70;100.00
33454;BME280;39400;49.744;7.012;2022-10-16T12:40:31;96155.88;;;15.68;100.00
33454;BME280;39400;49.744;7.012;2022-10-16T12:42:59;96149.00;;;15.77;100.00
33454;BME280;39400;49.744;7.012;2022-10-16T12:45:37;96155.63;;;15.83;100.00
33454;BME280;39400;49.744;7.012;2022-10-16T12:48:19;96159.22;;;15.56;100.00
33454;BME280;39400;49.744;7.012;2022-10-16T12:50:47;96166.28;;;15.61;100.00
33454;BME280;39400;49.744;7.012;2022-10-16T12:53:20;96164.66;;;15.63;100.00
33454;BME280;39400;49.744;7.012;2022-10-16T13:01:31;96140.06;;;16.52;100.00
33454;BME280;39400;49.744;7.012;2022-10-16T13:04:13;96141.31;;;16.68;100.00
33454;BME280;39400;49.744;7.012;2022-10-16T13:07:06;96152.13;;;16.82;100.00
33454;BME280;39400;49.744;7.012;2022-10-16T13:12:55;96127.72;;;17.09;100.00
33454;BME280;39400;49.744;7.012;2022-10-16T13:15:34;96139.66;;;16.90;100.00
33454;BME280;39400;49.744;7.012;2022-10-16T13:26:55;96137.06;;;16.99;100.00
33454;BME280;39400;49.744;7.012;2022-10-16T13:29:30;96127.00;;;16.69;100.00
33454;BME280;39400;49.744;7.012;2022-10-16T13:31:59;96130.00;;;16.78;100.00
33454;BME280;39400;49.744;7.012;2022-10-16T13:34:28;96121.91;;;17.20;100.00
33454;BME280;39400;49.744;7.012;2022-10-16T13:36:55;96116.44;;;17.17;100.00
33454;BME280;39400;49.744;7.012;2022-10-16T13:39:26;96131.88;;;17.01;100.00
33454;BME280;39400;49.744;7.012;2022-10-16T13:42:10;96135.84;;;17.00;100.00
33454;BME280;39400;49.744;7.012;2022-10-16T13:44:44;96141.94;;;16.95;100.00
33454;BME280;39400;49.744;7.012;2022-10-16T13:47:24;96139.47;;;16.81;100.00
33454;BME280;39400;49.744;7.012;2022-10-16T13:49:58;96130.97;;;16.68;100.00
33454;BME280;39400;49.744;7.012;2022-10-16T13:52:26;96127.50;;;16.84;100.00
33454;BME280;39400;49.744;7.012;2022-10-16T13:54:53;96135.47;;;16.82;100.00
33454;BME280;39400;49.744;7.012;2022-10-16T13:57:27;96146.09;;;16.47;100.00
33454;BME280;39400;49.744;7.012;2022-10-16T13:59:55;96150.56;;;16.41;100.00
33454;BME280;39400;49.744;7.012;2022-10-16T14:02:34;96140.47;;;16.31;100.00
33454;BME280;39400;49.744;7.012;2022-10-16T14:05:04;96142.38;;;16.14;100.00
33454;BME280;39400;49.744;7.012;2022-10-16T14:07:34;96150.16;;;16.23;100.00
33454;BME280;39400;49.744;7.012;2022-10-16T14:10:29;96151.13;;;16.12;100.00
33454;BME280;39400;49.744;7.012;2022-10-16T14:12:59;96150.44;;;16.08;100.00
33454;BME280;39400;49.744;7.012;2022-10-16T14:15:29;96145.31;;;16.27;100.00
33454;BME280;39400;49.744;7.012;2022-10-16T14:17:57;96145.31;;;16.27;100.00
33454;BME280;39400;49.744;7.012;2022-10-16T14:20:27;96146.09;;;16.27;100.00
33454;BME280;39400;49.744;7.012;2022-10-16T14:23:03;96142.06;;;16.32;100.00
33454;BME280;39400;49.744;7.012;2022-10-16T14:25:31;96145.09;;;16.57;100.00
33454;BME280;39400;49.744;7.012;2022-10-16T14:28:00;96140.75;;;16.56;100.00
33454;BME280;39400;49.744;7.012;2022-10-16T14:30:35;96138.06;;;16.33;100.00
33454;BME280;39400;49.744;7.012;2022-10-16T14:33:05;96139.69;;;16.50;100.00
33454;BME280;39400;49.744;7.012;2022-10-16T14:35:34;96137.78;;;16.47;100.00
33454;BME280;39400;49.744;7.012;2022-10-16T14:38:03;96129.97;;;16.42;100.00
33454;BME280;39400;49.744;7.012;2022-10-16T14:40:36;96133.78;;;16.48;100.00
33454;BME280;39400;49.744;7.012;2022-10-16T14:43:04;96137.06;;;16.43;100.00
33454;BME280;39400;49.744;7.012;2022-10-16T14:45:34;96131.22;;;16.57;100.00
33454;BME280;39400;49.744;7.012;2022-10-16T14:48:05;96134.00;;;16.57;100.00
33454;BME280;39400;49.744;7.012;2022-10-16T14:50:46;96119.97;;;16.64;100.00
33454;BME280;39400;49.744;7.012;2022-10-16T14:53:13;96124.81;;;16.60;100.00
33454;BME280;39400;49.744;7.012;2022-10-16T14:55:41;96129.50;;;16.63;100.00
33454;BME280;39400;49.744;7.012;2022-10-16T14:58:21;96131.44;;;16.67;100.00
33454;BME280;39400;49.744;7.012;2022-10-16T15:00:49;96129.03;;;16.49;100.00
33454;BME280;39400;49.744;7.012;2022-10-16T15:03:16;96132.66;;;16.46;100.00
33454;BME280;39400;49.744;7.012;2022-10-16T15:05:43;96130.81;;;16.39;100.00
33454;BME280;39400;49.744;7.012;2022-10-16T15:08:11;96136.44;;;16.35;100.00